Ellen Mcallister — WDG3673 — position and weather

sailwx.info

Track history (hours):
 
Tides and Currents Weather Stations Pressure Air Temp Water Temp Dewpoint Dewpoint Depression Visibility Wind Speed Wind Dir Waves Ship Positions

Ellen Mcallister

Owner: McAllister Towing & Transportation Inc., Staten Island, NY. More information available from US FCC via Universal Licensing System and Coast Guard Vessel Documentation Center.

Last reported at 2015-Mar-30 13:33 UTC. Time now 2015-Mar-30 14:18 UTC.
Position N 40°40' W 074°08'.

Length 35 m.

Type: Tug. MMSI: 366836590.

Date/timePositionNaut miles runAvg speedWind from/ knotsBaromVisibWave heightAir tempDewpointWater temp
2015-Mar-30 13:33N 40°40' W 074°08'0 0.0
2015-Mar-30 12:33N 40°40' W 074°08'0 0.0
2015-Mar-30 11:33N 40°40' W 074°08'1 0.2
2015-Mar-30 05:23N 40°39' W 074°09'2 1.8
2015-Mar-30 04:32N 40°40' W 074°08'3 0.5
2015-Mar-29 21:20N 40°38' W 074°12'3 0.3
2015-Mar-29 11:24N 40°39' W 074°09'0 0.5
2015-Mar-29 10:32N 40°40' W 074°09'3 2.5
2015-Mar-29 09:11N 40°39' W 074°04'1 0.2
2015-Mar-29 04:30N 40°40' W 074°04'0 0.0
2015-Mar-29 03:32N 40°40' W 074°04'1 1.2
2015-Mar-29 02:28N 40°39' W 074°05'2 1.8
2015-Mar-29 01:31N 40°38' W 074°03'2 0.1
2015-Mar-28 11:33N 40°40' W 074°04'0 0.0
2015-Mar-28 10:08N 40°40' W 074°04'0 0.0
2015-Mar-28 09:30N 40°40' W 074°04'0 0.0
2015-Mar-28 08:21N 40°40' W 074°04'0 0.0
2015-Mar-28 06:31N 40°40' W 074°04'0 0.0
2015-Mar-28 05:31N 40°40' W 074°04'0 0.0
2015-Mar-28 04:31N 40°40' W 074°04'0 0.2
2015-Mar-28 02:12N 40°40' W 074°05'4 1.5
2015-Mar-27 23:26N 40°38' W 074°10'9 0.4
2015-Mar-27 01:33N 40°42' W 073°59'2 2.0
2015-Mar-27 00:32N 40°41' W 074°01'3 0.6
2015-Mar-26 19:32N 40°40' W 074°05'3 0.1
2015-Mar-25 21:32N 40°40' W 074°08'4 3.4
2015-Mar-25 20:30N 40°39' W 074°04'1 0.2
2015-Mar-25 14:14N 40°38' W 074°03'  
2015-Mar-22 02:14N 40°40' W 074°05'1 1.3
2015-Mar-22 01:21N 40°40' W 074°04'2 0.2
2015-Mar-21 14:26N 40°41' W 074°02'5 4.5
2015-Mar-21 13:22N 40°46' W 074°00'  
Track history (hours):
 
Tides and Currents Weather Stations Pressure Air Temp Water Temp Dewpoint Dewpoint Depression Visibility Wind Speed Wind Dir Waves Ship Positions

Ellen Mcallister

Owner: McAllister Towing & Transportation Inc., Staten Island, NY. More information available from US FCC via Universal Licensing System and Coast Guard Vessel Documentation Center.

Last reported at 2015-Mar-30 13:33 UTC. Time now 2015-Mar-30 14:18 UTC.
Position N 40°40' W 074°08'.

Length 35 m.

Type: Tug. MMSI: 366836590.

Date/timePositionNaut miles runAvg speedWind from/ knotsBaromVisibWave heightAir tempDewpointWater temp
2015-Mar-30 13:33N 40°40' W 074°08'0 0.0
2015-Mar-30 12:33N 40°40' W 074°08'0 0.0
2015-Mar-30 11:33N 40°40' W 074°08'1 0.2
2015-Mar-30 05:23N 40°39' W 074°09'2 1.8
2015-Mar-30 04:32N 40°40' W 074°08'3 0.5
2015-Mar-29 21:20N 40°38' W 074°12'3 0.3
2015-Mar-29 11:24N 40°39' W 074°09'0 0.5
2015-Mar-29 10:32N 40°40' W 074°09'3 2.5
2015-Mar-29 09:11N 40°39' W 074°04'1 0.2
2015-Mar-29 04:30N 40°40' W 074°04'0 0.0
2015-Mar-29 03:32N 40°40' W 074°04'1 1.2
2015-Mar-29 02:28N 40°39' W 074°05'2 1.8
2015-Mar-29 01:31N 40°38' W 074°03'2 0.1
2015-Mar-28 11:33N 40°40' W 074°04'0 0.0
2015-Mar-28 10:08N 40°40' W 074°04'0 0.0
2015-Mar-28 09:30N 40°40' W 074°04'0 0.0
2015-Mar-28 08:21N 40°40' W 074°04'0 0.0
2015-Mar-28 06:31N 40°40' W 074°04'0 0.0
2015-Mar-28 05:31N 40°40' W 074°04'0 0.0
2015-Mar-28 04:31N 40°40' W 074°04'0 0.2
2015-Mar-28 02:12N 40°40' W 074°05'4 1.5
2015-Mar-27 23:26N 40°38' W 074°10'9 0.4
2015-Mar-27 01:33N 40°42' W 073°59'2 2.0
2015-Mar-27 00:32N 40°41' W 074°01'3 0.6
2015-Mar-26 19:32N 40°40' W 074°05'3 0.1
2015-Mar-25 21:32N 40°40' W 074°08'4 3.4
2015-Mar-25 20:30N 40°39' W 074°04'1 0.2
2015-Mar-25 14:14N 40°38' W 074°03'  
2015-Mar-22 02:14N 40°40' W 074°05'1 1.3
2015-Mar-22 01:21N 40°40' W 074°04'2 0.2
2015-Mar-21 14:26N 40°41' W 074°02'5 4.5
2015-Mar-21 13:22N 40°46' W 074°00'  

Dump ship's entire track history